Time;durP1;ratioP1;P1;durP2;ratioP2;P2;SDS_P1;SDS_P2;PMS_P1;PMS_P2;Temp;Humidity;BMP_temperature;BMP_pressure;BME280_temperature;BME280_humidity;BME280_pressure;Samples;Min_cycle;Max_cycle;Signal;HPM_P1;HPM_P2
2024/03/01 00:01:41;;;;;;;13.93;6.43;;;;;;;9.24;78.29;99874.50;5090233;28;20035;-67
2024/03/01 00:04:06;;;;;;;14.27;5.13;;;;;;;9.27;77.85;99875.69;5095818;28;20058;-67
2024/03/01 00:06:31;;;;;;;16.10;5.25;;;;;;;9.23;78.42;99875.66;5095228;28;20106;-67
2024/03/01 00:08:57;;;;;;;12.60;4.97;;;;;;;9.34;77.73;99873.06;5102743;28;20130;-67
2024/03/01 00:11:22;;;;;;;12.55;5.93;;;;;;;9.24;77.77;99863.75;5098216;28;20488;-67
2024/03/01 00:13:48;;;;;;;16.38;5.32;;;;;;;9.20;78.08;99856.78;5133125;27;20020;-67
2024/03/01 00:16:13;;;;;;;15.82;5.70;;;;;;;9.10;78.36;99858.97;5096562;28;20719;-68
2024/03/01 00:18:39;;;;;;;14.80;5.18;;;;;;;8.91;79.68;99856.41;5102675;28;20122;-68
2024/03/01 00:21:04;;;;;;;13.35;5.90;;;;;;;9.10;78.92;99858.19;5078239;28;20033;-68
2024/03/01 00:23:30;;;;;;;12.73;5.05;;;;;;;9.01;78.64;99853.09;5112097;27;20019;-67
2024/03/01 00:25:56;;;;;;;11.13;5.22;;;;;;;9.06;78.73;99854.69;5100010;28;20032;-67
2024/03/01 00:28:22;;;;;;;12.00;5.43;;;;;;;8.83;79.94;99844.03;5097953;28;20046;-68
2024/03/01 00:30:47;;;;;;;17.20;5.05;;;;;;;8.99;79.29;99857.28;5097582;28;20028;-67
2024/03/01 00:33:13;;;;;;;15.57;5.45;;;;;;;9.00;79.11;99846.16;5096790;27;20032;-67
2024/03/01 00:35:39;;;;;;;14.52;5.07;;;;;;;8.96;78.95;99845.34;5097460;28;20024;-67
2024/03/01 00:38:04;;;;;;;17.98;6.22;;;;;;;8.94;79.23;99850.31;5100090;28;20054;-67
2024/03/01 00:40:30;;;;;;;11.10;3.97;;;;;;;8.88;79.62;99859.81;5097512;28;20035;-68
2024/03/01 00:42:55;;;;;;;15.27;5.53;;;;;;;8.93;79.14;99854.13;5097675;28;20039;-68
2024/03/01 00:45:21;;;;;;;13.82;4.80;;;;;;;8.79;80.01;99853.94;5099251;28;20107;-67
2024/03/01 00:47:48;;;;;;;13.32;5.40;;;;;;;8.81;79.80;99851.66;5100677;28;20042;-68
2024/03/01 00:50:14;;;;;;;13.68;6.45;;;;;;;8.85;79.81;99844.44;5098294;28;20032;-68
2024/03/01 00:52:41;;;;;;;12.27;4.93;;;;;;;8.82;79.61;99839.03;5099189;27;20079;-67
2024/03/01 00:55:06;;;;;;;15.50;6.18;;;;;;;8.83;79.71;99849.41;5097188;28;20024;-67
2024/03/01 00:57:32;;;;;;;12.38;5.90;;;;;;;8.71;79.78;99851.53;5098192;28;20040;-68
2024/03/01 00:59:59;;;;;;;18.48;5.90;;;;;;;8.63;80.63;99853.31;5079927;28;20051;-68
2024/03/01 01:02:24;;;;;;;12.55;6.00;;;;;;;8.74;80.43;99845.44;5097223;28;20031;-68
2024/03/01 01:04:49;;;;;;;9.63;4.50;;;;;;;8.81;79.99;99834.78;5098881;28;20024;-67
2024/03/01 01:07:16;;;;;;;11.48;4.55;;;;;;;8.34;82.19;99831.78;5097261;28;20081;-67
2024/03/01 01:09:42;;;;;;;14.80;5.65;;;;;;;8.51;81.80;99836.66;5099150;28;20027;-68
2024/03/01 01:12:08;;;;;;;11.45;5.38;;;;;;;8.67;81.04;99829.97;5095842;28;20407;-68
2024/03/01 01:14:33;;;;;;;14.18;5.88;;;;;;;8.78;80.21;99830.16;5098837;28;20508;-67
2024/03/01 01:16:58;;;;;;;14.23;5.53;;;;;;;8.69;80.41;99826.97;5095123;28;20036;-67
2024/03/01 01:19:24;;;;;;;12.95;4.63;;;;;;;8.65;80.17;99816.16;5095439;28;20373;-68
2024/03/01 01:21:49;;;;;;;14.25;5.65;;;;;;;8.47;81.63;99815.13;5095513;28;20072;-67
2024/03/01 01:24:15;;;;;;;11.90;5.10;;;;;;;8.49;81.71;99815.56;5090329;28;20378;-68
2024/03/01 01:26:40;;;;;;;15.32;5.07;;;;;;;8.39;81.95;99805.44;5091826;28;20097;-67
2024/03/01 01:29:06;;;;;;;15.43;5.20;;;;;;;8.50;81.84;99801.00;5095931;28;20038;-68
2024/03/01 01:31:31;;;;;;;13.55;5.28;;;;;;;8.53;81.68;99802.19;5093992;28;20036;-67
2024/03/01 01:33:57;;;;;;;10.38;4.43;;;;;;;8.48;81.63;99803.25;5091511;28;20146;-67
2024/03/01 01:36:22;;;;;;;11.48;4.88;;;;;;;8.40;81.76;99792.81;5101872;28;20070;-67
2024/03/01 01:38:48;;;;;;;13.25;5.32;;;;;;;8.25;82.06;99791.03;5096784;28;20035;-68
2024/03/01 01:41:13;;;;;;;12.85;5.35;;;;;;;8.26;82.75;99790.69;5094348;28;20036;-67
2024/03/01 01:43:42;;;;;;;13.68;5.18;;;;;;;8.30;82.39;99788.03;5090074;28;20044;-67
2024/03/01 01:46:13;;;;;;;16.02;5.82;;;;;;;8.27;82.68;99783.38;5127561;27;20036;-68
2024/03/01 01:48:38;;;;;;;13.32;5.70;;;;;;;8.12;83.44;99782.38;5095702;28;20021;-67
2024/03/01 01:51:04;;;;;;;14.32;5.40;;;;;;;8.19;83.90;99783.25;5091784;28;20683;-68
2024/03/01 01:53:31;;;;;;;17.00;5.60;;;;;;;8.31;82.71;99789.59;5092281;28;20080;-68
2024/03/01 01:55:59;;;;;;;14.50;6.22;;;;;;;8.05;83.61;99780.34;5091616;28;20042;-68
2024/03/01 01:58:25;;;;;;;15.43;5.53;;;;;;;8.18;83.63;99781.72;5093699;28;20035;-67
2024/03/01 02:00:51;;;;;;;13.98;5.78;;;;;;;8.23;83.04;99777.94;5077233;28;20024;-68
2024/03/01 02:03:16;;;;;;;19.20;5.60;;;;;;;8.10;84.15;99777.38;5091659;28;20047;-67
2024/03/01 02:05:43;;;;;;;12.80;4.97;;;;;;;8.19;83.75;99769.84;5127742;27;20031;-67
2024/03/01 02:08:09;;;;;;;12.05;5.05;;;;;;;8.25;82.91;99766.88;5096415;28;20564;-68
2024/03/01 02:10:34;;;;;;;20.65;6.03;;;;;;;8.25;82.96;99766.88;5092517;28;20115;-68
2024/03/01 02:13:02;;;;;;;12.45;4.53;;;;;;;8.15;83.57;99760.97;5093163;28;20027;-68
2024/03/01 02:15:29;;;;;;;17.00;5.70;;;;;;;8.16;83.56;99764.44;5125551;27;20020;-68
2024/03/01 02:17:55;;;;;;;15.13;6.07;;;;;;;8.15;83.30;99755.63;5092825;28;20505;-67
2024/03/01 02:20:24;;;;;;;17.27;4.80;;;;;;;8.20;82.91;99751.88;5093693;28;20106;-68
2024/03/01 02:22:56;;;;;;;13.43;5.13;;;;;;;8.21;82.71;99740.78;5077345;28;20054;-67
2024/03/01 02:25:21;;;;;;;14.52;5.28;;;;;;;8.21;82.85;99742.66;5128502;27;20114;-68
2024/03/01 02:27:47;;;;;;;14.10;4.82;;;;;;;8.21;82.42;99735.41;5090674;28;20131;-67
2024/03/01 02:30:14;;;;;;;17.77;5.65;;;;;;;7.98;83.43;99740.03;5091605;28;20034;-68
2024/03/01 02:32:39;;;;;;;14.10;6.15;;;;;;;7.97;83.72;99733.16;5088010;28;20055;-67
2024/03/01 02:35:05;;;;;;;14.25;5.10;;;;;;;8.07;83.58;99732.50;5097124;28;20024;-67
2024/03/01 02:37:31;;;;;;;15.35;6.25;;;;;;;8.14;82.85;99735.31;5095188;28;20488;-68
2024/03/01 02:39:56;;;;;;;16.00;5.32;;;;;;;8.08;83.26;99728.72;5090850;28;20097;-68
2024/03/01 02:42:22;;;;;;;18.33;6.35;;;;;;;7.90;83.74;99735.69;5095187;28;20034;-68
2024/03/01 02:44:47;;;;;;;16.23;5.63;;;;;;;7.85;84.48;99729.88;5091917;28;20036;-67
2024/03/01 02:47:13;;;;;;;13.05;5.85;;;;;;;7.69;84.83;99723.84;5094227;28;20024;-68
2024/03/01 02:49:39;;;;;;;12.23;4.68;;;;;;;7.76;84.71;99726.66;5093566;28;20024;-67
2024/03/01 02:52:05;;;;;;;14.27;4.95;;;;;;;7.73;84.97;99727.38;5095801;28;20028;-67
2024/03/01 02:54:31;;;;;;;15.38;6.28;;;;;;;7.77;84.99;99720.94;5092613;28;20059;-67
2024/03/01 02:56:56;;;;;;;8.10;4.47;;;;;;;7.79;84.62;99724.03;5091182;28;20476;-68
2024/03/01 02:59:22;;;;;;;15.85;5.10;;;;;;;7.75;85.07;99717.06;5094766;28;20528;-68
2024/03/01 03:01:47;;;;;;;11.82;5.13;;;;;;;7.68;85.68;99706.25;5091349;28;20031;-67
2024/03/01 03:04:13;;;;;;;13.88;5.32;;;;;;;7.58;85.67;99706.84;5095120;28;20031;-68
2024/03/01 03:06:38;;;;;;;12.13;4.40;;;;;;;7.62;86.64;99703.09;5092852;28;20042;-67
2024/03/01 03:09:09;;;;;;;13.43;4.82;;;;;;;7.75;85.44;99709.03;5091788;28;20870;-68
2024/03/01 03:11:35;;;;;;;15.32;4.88;;;;;;;7.79;85.31;99713.31;5092388;28;20039;-68
2024/03/01 03:14:02;;;;;;;15.90;4.95;;;;;;;7.60;85.60;99713.41;5091987;28;20110;-68
2024/03/01 03:16:27;;;;;;;9.48;4.18;;;;;;;7.67;85.35;99710.03;5089333;28;20477;-67
2024/03/01 03:18:53;;;;;;;11.60;5.03;;;;;;;7.43;86.66;99699.69;5089991;28;20024;-67
2024/03/01 03:21:19;;;;;;;8.43;3.75;;;;;;;7.41;86.62;99700.06;5075226;28;20542;-67
2024/03/01 03:23:45;;;;;;;11.80;4.60;;;;;;;7.48;85.84;99686.78;5088249;28;20036;-68
2024/03/01 03:26:11;;;;;;;16.17;4.93;;;;;;;7.41;86.78;99693.94;5124664;27;20035;-68
2024/03/01 03:28:37;;;;;;;15.70;5.82;;;;;;;7.57;86.54;99691.91;5091710;28;20031;-68
2024/03/01 03:31:03;;;;;;;10.98;4.60;;;;;;;7.69;85.11;99697.06;5073825;28;20085;-67
2024/03/01 03:33:28;;;;;;;12.82;4.75;;;;;;;7.69;85.02;99705.09;5086236;28;20427;-68
2024/03/01 03:35:54;;;;;;;12.73;4.97;;;;;;;7.68;85.46;99693.63;5098697;28;20498;-68
2024/03/01 03:38:19;;;;;;;12.43;5.72;;;;;;;7.58;85.76;99704.16;5090784;28;20500;-68
2024/03/01 03:40:45;;;;;;;14.60;4.78;;;;;;;7.58;84.98;99698.81;5091070;28;21625;-68
2024/03/01 03:43:10;;;;;;;11.93;4.20;;;;;;;7.65;84.79;99707.72;5090262;28;20853;-67
2024/03/01 03:45:36;;;;;;;12.85;4.68;;;;;;;7.71;84.54;99708.97;5091560;28;20036;-67
2024/03/01 03:48:04;;;;;;;13.15;5.60;;;;;;;7.33;86.23;99706.41;5092013;28;20043;-68
2024/03/01 03:50:29;;;;;;;21.33;4.85;;;;;;;7.49;85.56;99707.06;5094585;28;20027;-67
2024/03/01 03:52:55;;;;;;;15.77;6.05;;;;;;;7.42;85.97;99700.81;5093419;28;20143;-67
2024/03/01 03:55:21;;;;;;;16.60;5.28;;;;;;;7.41;85.58;99707.31;5097211;28;20498;-68
2024/03/01 03:57:47;;;;;;;13.18;5.25;;;;;;;7.38;86.05;99716.81;5075952;28;20036;-67
2024/03/01 04:00:15;;;;;;;9.88;4.45;;;;;;;7.41;85.78;99710.00;5091760;28;21436;-68
2024/03/01 04:02:42;;;;;;;11.35;4.35;;;;;;;7.52;85.53;99710.94;5088966;28;20019;-68
2024/03/01 04:05:07;;;;;;;12.95;4.95;;;;;;;7.47;85.47;99713.94;5090458;28;20160;-67
2024/03/01 04:07:33;;;;;;;15.65;5.57;;;;;;;7.41;85.72;99710.78;5095469;28;20036;-67
2024/03/01 04:09:58;;;;;;;14.20;5.28;;;;;;;7.49;85.83;99711.66;5093762;28;20032;-67
2024/03/01 04:12:24;;;;;;;14.57;5.30;;;;;;;7.59;85.03;99719.13;5090963;28;20024;-68
2024/03/01 04:14:49;;;;;;;12.68;5.63;;;;;;;7.48;85.49;99710.09;5093223;28;20055;-68
2024/03/01 04:17:15;;;;;;;13.93;5.82;;;;;;;7.26;86.74;99715.09;5092473;28;20489;-67
2024/03/01 04:19:40;;;;;;;13.48;4.50;;;;;;;7.37;86.29;99709.94;5092953;28;20686;-68
2024/03/01 04:22:05;;;;;;;11.65;5.40;;;;;;;7.13;86.74;99700.31;5090444;28;20031;-68
2024/03/01 04:24:31;;;;;;;18.88;5.43;;;;;;;7.26;86.53;99708.94;5091850;28;20035;-68
2024/03/01 04:26:57;;;;;;;11.70;4.55;;;;;;;7.22;87.49;99703.53;5090477;28;20028;-68
2024/03/01 04:29:22;;;;;;;14.57;4.70;;;;;;;7.22;87.31;99692.06;5092377;28;20059;-68
2024/03/01 04:31:51;;;;;;;10.52;4.75;;;;;;;7.23;87.26;99693.63;5073897;28;20012;-67
2024/03/01 04:34:17;;;;;;;14.82;6.03;;;;;;;7.30;86.31;99699.09;5091686;28;20507;-68
2024/03/01 04:36:42;;;;;;;13.88;4.30;;;;;;;7.16;87.15;99696.19;5090628;28;20031;-67
2024/03/01 04:39:07;;;;;;;8.98;4.13;;;;;;;7.13;87.06;99703.00;5091684;28;21174;-67
2024/03/01 04:41:33;;;;;;;14.60;5.18;;;;;;;7.13;87.99;99702.22;5089413;28;20023;-68
2024/03/01 04:43:58;;;;;;;16.75;6.72;;;;;;;7.20;87.76;99695.09;5089990;28;20032;-68
2024/03/01 04:46:24;;;;;;;14.75;5.97;;;;;;;7.11;87.21;99691.09;5092820;28;20625;-68
2024/03/01 04:48:50;;;;;;;15.25;5.38;;;;;;;7.26;87.15;99698.25;5093969;28;20070;-68
2024/03/01 04:51:16;;;;;;;11.48;4.55;;;;;;;7.28;86.71;99694.09;5088729;28;20115;-68
2024/03/01 04:53:41;;;;;;;10.80;4.70;;;;;;;7.32;86.44;99696.81;5092833;28;20137;-67
2024/03/01 04:56:08;;;;;;;15.48;5.32;;;;;;;7.36;86.04;99683.50;5091890;28;20077;-68
2024/03/01 04:58:35;;;;;;;10.63;4.95;;;;;;;7.24;86.16;99687.91;5094462;28;20028;-67
2024/03/01 05:01:00;;;;;;;15.77;5.50;;;;;;;7.25;87.02;99684.09;5091647;28;20023;-67
2024/03/01 05:03:29;;;;;;;13.40;4.45;;;;;;;7.28;86.19;99678.03;5089906;28;20404;-68
2024/03/01 05:05:59;;;;;;;13.05;5.53;;;;;;;7.22;86.35;99697.41;5095694;28;20030;-68
2024/03/01 05:08:25;;;;;;;19.10;5.95;;;;;;;7.19;87.23;99688.19;5094119;28;20051;-67
2024/03/01 05:10:50;;;;;;;16.10;5.35;;;;;;;7.26;86.77;99690.22;5095291;28;20020;-67
2024/03/01 05:13:17;;;;;;;11.60;5.00;;;;;;;7.23;86.72;99688.25;5093578;28;20039;-67
2024/03/01 05:15:43;;;;;;;13.73;5.55;;;;;;;7.13;87.33;99691.50;5095867;28;20028;-67
2024/03/01 05:18:08;;;;;;;15.93;5.35;;;;;;;7.20;87.10;99687.06;5097568;28;20032;-67
2024/03/01 05:20:34;;;;;;;11.30;4.72;;;;;;;7.08;87.23;99697.91;5096234;28;20032;-67
2024/03/01 05:22:59;;;;;;;16.73;5.72;;;;;;;7.27;86.46;99697.91;5093590;28;20024;-67
2024/03/01 05:25:26;;;;;;;11.02;5.22;;;;;;;7.12;86.63;99693.41;5094410;28;20576;-67
2024/03/01 05:27:52;;;;;;;16.58;5.80;;;;;;;7.17;87.08;99695.81;5093728;28;20417;-68
2024/03/01 05:30:23;;;;;;;12.18;4.78;;;;;;;7.28;85.91;99688.72;5089676;28;20016;-68
2024/03/01 05:32:50;;;;;;;7.88;3.80;;;;;;;7.18;86.41;99700.03;5123895;27;20186;-67
2024/03/01 05:35:18;;;;;;;13.77;5.35;;;;;;;7.14;87.24;99693.84;5090941;28;20496;-68
2024/03/01 05:37:44;;;;;;;10.15;4.88;;;;;;;7.11;86.28;99688.41;5093077;28;20039;-68
2024/03/01 05:40:11;;;;;;;10.88;4.70;;;;;;;7.14;86.90;99690.41;5075210;28;20119;-68
2024/03/01 05:42:43;;;;;;;17.13;6.47;;;;;;;7.19;86.88;99690.88;5093313;28;20177;-68
2024/03/01 05:45:09;;;;;;;11.18;5.43;;;;;;;7.19;86.76;99692.78;5107743;27;20042;-67
2024/03/01 05:47:35;;;;;;;14.52;4.97;;;;;;;7.19;86.60;99692.78;5090348;28;20051;-68
2024/03/01 05:50:01;;;;;;;12.40;5.28;;;;;;;7.08;86.67;99694.50;5093929;28;20497;-68
2024/03/01 05:52:27;;;;;;;13.98;5.15;;;;;;;6.95;88.00;99693.09;5094086;28;20030;-67
2024/03/01 05:54:52;;;;;;;11.05;4.75;;;;;;;6.89;88.04;99697.94;5087553;28;20685;-68
2024/03/01 05:57:19;;;;;;;14.57;5.00;;;;;;;6.94;87.41;99686.97;5089115;28;20039;-68
2024/03/01 05:59:44;;;;;;;11.38;4.63;;;;;;;7.06;87.57;99697.53;5088957;28;20145;-68
2024/03/01 06:02:10;;;;;;;18.42;5.35;;;;;;;7.09;87.07;99693.34;5091152;28;20092;-68
2024/03/01 06:04:36;;;;;;;11.43;4.60;;;;;;;7.15;86.71;99692.72;5085310;28;20044;-68
2024/03/01 06:07:01;;;;;;;14.57;4.55;;;;;;;7.11;86.64;99688.41;5091298;28;20015;-67
2024/03/01 06:09:27;;;;;;;10.80;4.22;;;;;;;7.11;86.77;99686.53;5107320;27;20031;-67
2024/03/01 06:11:52;;;;;;;13.98;5.55;;;;;;;7.11;87.06;99691.09;5092943;28;20036;-67
2024/03/01 06:14:18;;;;;;;17.38;5.70;;;;;;;7.03;87.17;99682.16;5087306;28;20040;-67
2024/03/01 06:16:43;;;;;;;17.00;5.18;;;;;;;6.80;87.77;99692.06;5089068;28;20024;-68
2024/03/01 06:19:09;;;;;;;14.07;5.40;;;;;;;6.89;87.89;99689.91;5089974;28;20024;-67
2024/03/01 06:21:35;;;;;;;13.25;5.70;;;;;;;6.85;87.79;99697.09;5073460;28;20496;-68
2024/03/01 06:24:00;;;;;;;14.38;5.97;;;;;;;6.73;88.83;99693.81;5082577;28;20039;-68
2024/03/01 06:26:25;;;;;;;8.80;3.95;;;;;;;6.76;89.03;99688.53;5089722;28;20034;-68
2024/03/01 06:28:51;;;;;;;12.73;4.70;;;;;;;7.10;87.48;99695.66;5096172;28;20036;-67
2024/03/01 06:31:17;;;;;;;10.82;5.30;;;;;;;7.13;87.61;99694.19;5091960;28;20119;-68
2024/03/01 06:33:42;;;;;;;12.13;5.13;;;;;;;7.08;86.33;99686.47;5088046;28;20034;-68
2024/03/01 06:36:08;;;;;;;11.63;4.90;;;;;;;7.10;87.04;99695.66;5090672;28;20369;-68
2024/03/01 06:38:35;;;;;;;17.23;5.70;;;;;;;7.04;87.84;99691.75;5095728;28;20023;-68
2024/03/01 06:41:02;;;;;;;18.58;6.28;;;;;;;7.11;87.63;99693.78;5076588;28;20034;-68
2024/03/01 06:43:28;;;;;;;15.88;6.25;;;;;;;7.14;87.34;99701.88;5093119;28;20055;-68
2024/03/01 06:45:53;;;;;;;11.63;5.10;;;;;;;7.16;87.59;99694.25;5085061;28;20104;-68
2024/03/01 06:48:21;;;;;;;22.67;5.65;;;;;;;7.16;87.81;99699.59;5091214;28;20032;-67
2024/03/01 06:50:46;;;;;;;12.30;4.90;;;;;;;7.21;87.39;99712.72;5084708;28;20031;-68
2024/03/01 06:53:12;;;;;;;15.00;6.20;;;;;;;7.25;87.22;99702.06;5086890;28;20035;-68
2024/03/01 06:55:38;;;;;;;13.80;5.93;;;;;;;7.25;87.10;99708.19;5083567;28;20050;-68
2024/03/01 06:58:03;;;;;;;13.20;4.88;;;;;;;7.27;87.20;99707.84;5087828;28;20403;-68
2024/03/01 07:00:30;;;;;;;16.52;5.43;;;;;;;7.07;87.50;99709.00;5090381;28;20023;-67
2024/03/01 07:02:56;;;;;;;12.95;4.10;;;;;;;7.18;87.27;99705.38;5085866;28;20036;-68
2024/03/01 07:05:21;;;;;;;11.80;5.07;;;;;;;7.29;86.98;99711.72;5085569;28;20370;-68
2024/03/01 07:07:47;;;;;;;10.27;5.40;;;;;;;7.38;86.08;99719.50;5085962;28;20038;-68
2024/03/01 07:10:12;;;;;;;15.10;5.85;;;;;;;7.33;86.32;99719.81;5084552;28;20027;-68
2024/03/01 07:12:38;;;;;;;17.75;5.32;;;;;;;7.41;86.77;99720.72;5083315;28;20492;-68
2024/03/01 07:15:08;;;;;;;13.50;5.50;;;;;;;7.40;87.10;99737.88;5087720;28;20027;-68
2024/03/01 07:17:33;;;;;;;12.93;5.43;;;;;;;7.37;87.57;99736.72;5080186;28;20027;-68
2024/03/01 07:20:00;;;;;;;14.85;4.78;;;;;;;7.43;86.72;99727.25;5087664;28;20081;-68
2024/03/01 07:22:25;;;;;;;8.80;3.45;;;;;;;7.49;86.93;99735.78;5092573;28;20047;-67
2024/03/01 07:24:51;;;;;;;15.27;6.10;;;;;;;7.64;86.48;99740.25;5087517;28;20033;-68
2024/03/01 07:27:16;;;;;;;15.02;6.22;;;;;;;7.63;86.74;99741.34;5092107;28;20031;-68
2024/03/01 07:29:42;;;;;;;15.27;6.07;;;;;;;7.52;86.46;99729.69;5090446;28;20074;-68
2024/03/01 07:32:07;;;;;;;13.43;5.32;;;;;;;7.50;87.39;99729.28;5087435;28;20031;-68
2024/03/01 07:34:33;;;;;;;14.65;5.68;;;;;;;7.64;87.42;99724.16;5088088;28;20071;-68
2024/03/01 07:36:58;;;;;;;18.02;6.10;;;;;;;7.87;85.61;99735.63;5092268;28;20048;-67
2024/03/01 07:39:24;;;;;;;15.52;6.40;;;;;;;7.83;85.83;99737.50;5091833;28;20039;-68
2024/03/01 07:41:49;;;;;;;20.52;7.10;;;;;;;7.75;85.88;99741.19;5084577;28;20035;-68
2024/03/01 07:44:15;;;;;;;16.25;5.95;;;;;;;7.83;85.59;99742.84;5116194;27;20225;-67
2024/03/01 07:46:40;;;;;;;19.70;5.70;;;;;;;7.88;85.51;99740.63;5086719;28;20441;-68
2024/03/01 07:49:06;;;;;;;19.30;6.53;;;;;;;7.90;85.45;99749.09;5086493;28;20040;-68
2024/03/01 07:51:31;;;;;;;16.33;5.63;;;;;;;7.91;85.19;99747.19;5084478;28;20058;-67
2024/03/01 07:53:57;;;;;;;9.18;4.32;;;;;;;7.93;85.70;99747.63;5087881;28;20039;-68
2024/03/01 07:56:23;;;;;;;16.88;6.22;;;;;;;7.87;87.16;99741.00;5086244;28;20512;-68
2024/03/01 07:59:00;;;;;;;13.90;5.40;;;;;;;8.17;85.42;99747.19;5085110;28;20050;-68
2024/03/01 08:01:25;;;;;;;18.05;5.60;;;;;;;8.46;83.70;99743.81;5090529;28;20040;-68
2024/03/01 08:03:51;;;;;;;9.70;4.63;;;;;;;8.34;84.24;99757.47;5089113;28;20020;-68
2024/03/01 08:06:16;;;;;;;17.52;5.45;;;;;;;8.65;83.32;99735.63;5091258;28;20406;-67
2024/03/01 08:08:45;;;;;;;14.55;5.38;;;;;;;8.83;83.04;99743.91;5088000;28;20019;-67
2024/03/01 08:11:11;;;;;;;19.40;6.15;;;;;;;9.04;82.05;99736.13;5083265;28;20051;-68
2024/03/01 08:13:39;;;;;;;8.80;4.13;;;;;;;9.18;80.80;99746.25;5086851;28;20023;-67
2024/03/01 08:16:09;;;;;;;11.95;4.55;;;;;;;9.20;80.77;99744.75;5086455;28;20032;-68
2024/03/01 08:18:39;;;;;;;15.82;6.28;;;;;;;9.28;80.73;99742.91;5084944;28;20032;-67
2024/03/01 08:21:08;;;;;;;17.27;5.72;;;;;;;9.54;79.80;99737.41;5085981;28;20055;-67
2024/03/01 08:23:38;;;;;;;18.27;5.85;;;;;;;9.77;78.68;99746.06;5085602;28;20052;-67
2024/03/01 08:26:05;;;;;;;14.85;5.35;;;;;;;10.00;78.14;99738.56;5094137;28;20062;-68
2024/03/01 08:28:31;;;;;;;15.27;5.88;;;;;;;10.13;77.31;99741.75;5096122;28;20027;-68
2024/03/01 08:31:03;;;;;;;17.52;5.38;;;;;;;10.21;77.09;99737.97;5094754;28;20055;-68
2024/03/01 08:33:31;;;;;;;9.75;3.55;;;;;;;10.33;75.50;99741.16;5093308;28;20119;-68
2024/03/01 08:35:57;;;;;;;15.68;5.15;;;;;;;10.33;75.73;99741.16;5088706;28;20016;-67
2024/03/01 08:38:43;;;;;;;16.88;5.55;;;;;;;10.40;75.58;99740.41;5087750;28;20054;-68
2024/03/01 08:41:12;;;;;;;13.48;5.50;;;;;;;10.49;75.41;99728.16;5089616;28;20039;-68
2024/03/01 08:43:41;;;;;;;14.25;4.13;;;;;;;10.60;73.63;99745.16;5107083;28;20027;-68
2024/03/01 08:46:22;;;;;;;14.20;4.68;;;;;;;10.39;73.83;99738.88;5086947;28;20481;-68
2024/03/01 08:48:48;;;;;;;14.07;5.38;;;;;;;10.44;74.28;99741.97;5085826;28;20040;-68
2024/03/01 08:51:13;;;;;;;14.57;5.90;;;;;;;10.29;74.73;99744.94;5093841;28;20035;-68
2024/03/01 08:53:51;;;;;;;15.52;5.38;;;;;;;10.31;75.04;99748.81;5089332;28;20047;-67
2024/03/01 08:56:17;;;;;;;23.25;6.20;;;;;;;10.40;74.90;99738.47;5090179;28;20039;-67
2024/03/01 08:58:44;;;;;;;13.85;5.18;;;;;;;10.47;75.48;99732.38;5090554;28;20030;-67
2024/03/01 09:01:41;;;;;;;14.13;5.32;;;;;;;10.72;76.25;99736.72;5075855;28;20054;-68
2024/03/01 09:04:13;;;;;;;19.10;6.78;;;;;;;11.13;73.47;99739.97;5085606;28;20063;-68
2024/03/01 09:06:39;;;;;;;20.27;7.18;;;;;;;11.40;71.89;99740.44;5091813;28;20123;-68
2024/03/01 09:09:05;;;;;;;12.93;5.32;;;;;;;11.39;71.79;99734.25;5090581;27;20026;-67
2024/03/01 09:11:31;;;;;;;19.52;6.10;;;;;;;11.80;70.52;99734.72;5083088;28;20043;-67
2024/03/01 09:13:57;;;;;;;16.17;6.75;;;;;;;11.76;68.81;99728.56;5082930;28;20020;-68
2024/03/01 09:16:24;;;;;;;18.95;5.80;;;;;;;11.77;69.29;99736.25;5091823;28;20123;-67
2024/03/01 09:18:50;;;;;;;16.15;5.50;;;;;;;11.80;70.16;99729.31;5090758;28;20455;-66
2024/03/01 09:21:30;;;;;;;16.10;6.38;;;;;;;11.94;69.23;99734.72;5089704;28;20105;-66
2024/03/01 09:23:59;;;;;;;17.15;5.30;;;;;;;11.88;69.03;99730.88;5091753;28;20040;-67
2024/03/01 09:26:25;;;;;;;18.77;6.60;;;;;;;11.93;68.75;99722.38;5090543;28;20101;-66
2024/03/01 09:28:50;;;;;;;11.25;4.85;;;;;;;12.11;68.28;99714.28;5095885;28;20028;-66
2024/03/01 09:31:17;;;;;;;20.27;6.70;;;;;;;12.09;68.74;99724.69;5090722;28;20023;-66
2024/03/01 09:33:42;;;;;;;16.02;5.75;;;;;;;12.28;69.33;99725.03;5088387;28;20034;-66
2024/03/01 09:36:18;;;;;;;18.15;6.75;;;;;;;12.39;67.17;99723.09;5087584;28;20512;-66
2024/03/01 09:38:45;;;;;;;11.68;4.97;;;;;;;12.49;67.29;99710.72;5091003;28;20042;-66
2024/03/01 09:41:17;;;;;;;16.88;6.65;;;;;;;12.46;67.30;99703.41;5091132;28;20531;-66
2024/03/01 09:43:58;;;;;;;13.52;6.05;;;;;;;12.51;67.57;99713.78;5088999;28;20054;-66
2024/03/01 09:46:36;;;;;;;14.18;5.43;;;;;;;12.48;67.34;99714.59;5090891;28;20036;-66
2024/03/01 09:49:20;;;;;;;16.63;6.30;;;;;;;12.43;68.37;99715.75;5088478;28;20068;-66
2024/03/01 09:52:33;;;;;;;17.23;6.32;;;;;;;12.40;67.33;99715.75;5087950;28;20032;-66
2024/03/01 09:55:14;;;;;;;9.43;5.38;;;;;;;12.40;68.82;99719.25;5046163;28;20037;-66
2024/03/01 09:57:45;;;;;;;14.32;5.40;;;;;;;12.33;68.71;99713.09;5046167;28;20036;-67
2024/03/01 10:00:11;;;;;;;;;;;;;;;12.29;69.24;99710.38;5074989;28;20504;-66
2024/03/01 10:03:11;;;;;;;14.13;4.75;;;;;;;12.37;70.47;99714.59;5087681;28;20113;-66
2024/03/01 10:05:49;;;;;;;17.20;6.95;;;;;;;12.38;69.96;99716.16;5117681;27;20048;-66
2024/03/01 10:08:52;;;;;;;12.60;4.90;;;;;;;12.58;68.58;99713.78;5090071;28;20032;-66
2024/03/01 10:11:31;;;;;;;16.73;5.70;;;;;;;12.67;69.38;99724.94;5087591;28;20114;-66
2024/03/01 10:14:12;;;;;;;12.20;4.30;;;;;;;12.58;69.62;99725.34;5088033;28;20051;-67
2024/03/01 10:16:55;;;;;;;17.83;5.50;;;;;;;12.75;68.24;99709.47;5090439;28;20028;-67
2024/03/01 10:20:00;;;;;;;16.02;5.53;;;;;;;12.78;67.97;99714.09;5096259;28;20315;-67
2024/03/01 10:22:31;;;;;;;11.35;5.15;;;;;;;12.89;67.49;99707.47;5112871;27;20047;-66
2024/03/01 10:25:41;;;;;;;16.60;6.25;;;;;;;12.92;67.74;99717.50;5091867;28;20043;-66
2024/03/01 10:28:10;;;;;;;13.10;5.15;;;;;;;13.12;67.14;99705.09;5076646;28;20032;-66
2024/03/01 10:30:56;;;;;;;15.80;5.53;;;;;;;13.19;66.99;99715.06;5086560;28;20035;-67
2024/03/01 10:33:28;;;;;;;16.13;5.95;;;;;;;13.24;66.33;99723.53;5085472;28;20126;-67
2024/03/01 10:36:15;;;;;;;16.67;5.32;;;;;;;13.12;66.52;99732.13;5088531;28;20090;-67
2024/03/01 10:38:53;;;;;;;15.48;6.32;;;;;;;13.26;67.09;99728.53;5086681;28;20497;-67
2024/03/01 10:41:30;;;;;;;16.83;5.22;;;;;;;13.35;67.05;99729.69;5083714;28;20101;-67
2024/03/01 10:44:20;;;;;;;18.05;5.85;;;;;;;13.41;66.14;99733.47;5089037;28;20409;-67
2024/03/01 10:47:20;;;;;;;17.38;6.30;;;;;;;13.38;66.61;99733.50;5093096;28;20493;-67
2024/03/01 10:50:13;;;;;;;17.48;5.70;;;;;;;13.33;67.18;99726.59;5089778;28;20080;-66
2024/03/01 10:52:48;;;;;;;15.95;5.93;;;;;;;13.44;68.15;99727.28;5088119;28;20436;-67
2024/03/01 10:55:23;;;;;;;9.73;5.18;;;;;;;13.77;65.20;99738.66;5088150;28;20028;-67
2024/03/01 10:58:04;;;;;;;8.32;4.38;;;;;;;13.75;65.58;99733.63;5089079;28;20032;-67
2024/03/01 11:00:31;;;;;;;16.00;5.93;;;;;;;13.59;66.81;99727.94;5087141;28;20103;-66
2024/03/01 11:03:16;;;;;;;14.93;5.55;;;;;;;13.70;66.09;99736.78;5094456;28;20012;-66
2024/03/01 11:06:10;;;;;;;15.02;5.57;;;;;;;13.75;67.27;99739.06;5089743;28;20530;-67
2024/03/01 11:08:57;;;;;;;17.30;6.03;;;;;;;13.78;66.48;99740.94;5086211;28;20040;-66
2024/03/01 11:11:41;;;;;;;14.20;6.00;;;;;;;13.90;65.94;99737.75;5084821;28;20036;-67
2024/03/01 11:14:11;;;;;;;14.30;5.57;;;;;;;14.07;64.71;99731.44;5088438;28;20028;-67
2024/03/01 11:16:40;;;;;;;15.00;5.07;;;;;;;14.09;66.17;99736.47;5087688;28;20477;-66
2024/03/01 11:19:15;;;;;;;10.93;4.75;;;;;;;14.20;65.85;99734.41;5087559;28;20032;-67
2024/03/01 11:21:45;;;;;;;14.20;5.05;;;;;;;14.24;65.92;99746.00;5088428;28;20131;-66
2024/03/01 11:24:19;;;;;;;16.45;4.72;;;;;;;14.26;65.76;99738.22;5092005;28;20042;-67
2024/03/01 11:26:49;;;;;;;12.75;4.80;;;;;;;14.35;65.34;99746.69;5090695;28;20028;-67
2024/03/01 11:29:22;;;;;;;11.82;5.20;;;;;;;14.42;65.63;99747.38;5083523;28;20111;-66
2024/03/01 11:31:52;;;;;;;14.13;5.18;;;;;;;14.44;63.84;99736.91;5090965;28;20404;-66
2024/03/01 11:35:03;;;;;;;15.48;5.93;;;;;;;14.39;65.21;99745.47;5086405;28;20089;-66
2024/03/01 11:37:41;;;;;;;10.80;4.28;;;;;;;14.44;65.46;99736.13;5054963;28;20139;-66
2024/03/01 11:40:09;;;;;;;13.25;4.82;;;;;;;14.34;66.64;99729.66;5086849;28;20040;-66